Time;durP1;ratioP1;P1;durP2;ratioP2;P2;SDS_P1;SDS_P2;PMS_P1;PMS_P2;Temp;Humidity;BMP_temperature;BMP_pressure;BME280_temperature;BME280_humidity;BME280_pressure;Samples;Min_cycle;Max_cycle;Signal;HPM_P1;HPM_P2
2023/02/15 00:01:42;;;;;;;3.72;2.03;;;;;;;21.12;33.68;100733.25;7396027;19;20034;-57
2023/02/15 00:04:09;;;;;;;7.20;2.58;;;;;;;20.92;33.75;100725.13;7397802;19;20070;-57
2023/02/15 00:06:36;;;;;;;9.20;5.47;;;;;;;20.07;34.39;100733.09;7394652;19;20021;-57
2023/02/15 00:09:02;;;;;;;4.90;3.58;;;;;;;20.51;33.99;100726.47;7394976;19;20360;-57
2023/02/15 00:11:42;;;;;;;18.55;5.05;;;;;;;20.51;34.02;100727.22;7393140;19;20011;-57
2023/02/15 00:14:08;;;;;;;6.43;3.67;;;;;;;20.56;33.85;100734.91;7396280;19;20042;-57
2023/02/15 00:16:35;;;;;;;4.88;2.28;;;;;;;20.61;34.00;100719.97;7394216;19;20014;-57
2023/02/15 00:19:02;;;;;;;10.52;3.55;;;;;;;20.40;34.30;100710.31;7395542;19;20018;-57
2023/02/15 00:21:30;;;;;;;11.73;3.20;;;;;;;20.37;34.02;100706.47;7392487;19;20039;-58
2023/02/15 00:23:57;;;;;;;7.53;3.72;;;;;;;20.50;34.01;100703.06;7395452;19;20007;-57
2023/02/15 00:26:24;;;;;;;5.53;3.00;;;;;;;20.67;33.70;100697.28;7393720;19;20463;-57
2023/02/15 00:28:51;;;;;;;6.60;2.38;;;;;;;20.86;33.56;100698.94;7392607;19;20015;-57
2023/02/15 00:31:19;;;;;;;18.58;3.45;;;;;;;20.84;33.77;100687.38;7393882;19;20010;-57
2023/02/15 00:33:45;;;;;;;6.57;3.35;;;;;;;20.95;33.33;100695.78;7394660;19;20034;-57
2023/02/15 00:36:12;;;;;;;10.07;4.43;;;;;;;21.34;33.30;100689.78;7393083;19;20028;-57
2023/02/15 00:38:38;;;;;;;5.05;4.10;;;;;;;21.54;32.84;100688.56;7394479;19;20459;-57
2023/02/15 00:41:07;;;;;;;2.17;1.98;;;;;;;18.85;34.69;100688.06;7391615;19;20086;-57
2023/02/15 00:43:34;;;;;;;10.77;3.30;;;;;;;20.58;33.87;100681.38;7393317;19;20011;-58
2023/02/15 00:46:03;;;;;;;9.85;3.15;;;;;;;19.65;35.45;100681.31;7390620;19;20015;-57
2023/02/15 00:48:29;;;;;;;6.18;3.22;;;;;;;21.22;33.54;100679.09;7392889;19;20096;-57
2023/02/15 00:50:59;;;;;;;4.63;2.38;;;;;;;20.91;34.11;100669.81;7391709;19;20014;-57
2023/02/15 00:53:26;;;;;;;1.60;1.48;;;;;;;21.45;33.33;100666.22;7393825;19;20015;-57
2023/02/15 00:55:53;;;;;;;3.88;3.50;;;;;;;21.50;33.50;100656.91;7393012;19;20021;-57
2023/02/15 00:58:19;;;;;;;11.30;4.05;;;;;;;21.11;34.09;100649.56;7392346;19;20015;-57
2023/02/15 01:00:46;;;;;;;8.38;3.92;;;;;;;21.63;33.58;100652.13;7393630;19;20078;-58
2023/02/15 01:03:15;;;;;;;2.33;2.03;;;;;;;20.81;34.55;100643.09;7392250;19;20026;-58
2023/02/15 01:05:42;;;;;;;3.80;2.80;;;;;;;20.25;35.52;100641.97;7394047;19;20011;-57
2023/02/15 01:08:08;;;;;;;14.38;3.30;;;;;;;21.28;34.37;100625.97;7393569;19;20018;-57
2023/02/15 01:10:35;;;;;;;4.90;3.00;;;;;;;21.34;34.02;100627.44;7391494;19;20018;-57
2023/02/15 01:13:02;;;;;;;6.68;2.72;;;;;;;21.75;33.88;100616.66;7389638;19;20082;-57
2023/02/15 01:15:28;;;;;;;5.85;2.58;;;;;;;21.97;33.66;100620.53;7391577;19;20396;-57
2023/02/15 01:17:55;;;;;;;6.72;3.00;;;;;;;22.12;32.97;100621.59;7393761;19;20015;-57
2023/02/15 01:20:24;;;;;;;3.67;2.90;;;;;;;21.61;33.52;100614.25;7392530;19;20361;-63
2023/02/15 01:22:51;;;;;;;7.75;3.47;;;;;;;21.49;33.75;100605.13;7392907;19;20011;-58
2023/02/15 01:25:19;;;;;;;4.53;2.92;;;;;;;21.40;34.00;100605.47;7391274;19;20011;-57
2023/02/15 01:27:46;;;;;;;5.70;2.05;;;;;;;21.38;33.60;100595.97;7391014;19;20006;-57
2023/02/15 01:30:14;;;;;;;7.53;3.25;;;;;;;21.39;33.51;100600.34;7395340;19;20084;-57
2023/02/15 01:32:40;;;;;;;11.13;3.45;;;;;;;21.31;33.56;100588.09;7390608;19;20015;-57
2023/02/15 01:35:08;;;;;;;16.27;4.78;;;;;;;20.45;33.73;100585.00;7395244;19;20018;-58
2023/02/15 01:37:35;;;;;;;11.13;4.55;;;;;;;21.13;33.38;100584.66;7391861;19;20073;-57
2023/02/15 01:40:04;;;;;;;13.73;4.50;;;;;;;20.80;33.87;100584.97;7391391;19;20523;-57
2023/02/15 01:42:30;;;;;;;5.40;2.60;;;;;;;20.51;33.96;100580.06;7391651;19;20019;-57
2023/02/15 01:45:03;;;;;;;8.75;2.88;;;;;;;20.72;34.05;100572.69;7396769;19;20475;-57
2023/02/15 01:47:49;;;;;;;3.80;2.17;;;;;;;19.58;35.53;100576.50;7392629;19;20011;-57
2023/02/15 01:50:20;;;;;;;6.75;3.13;;;;;;;20.76;34.93;100570.34;7391962;19;20018;-57
2023/02/15 01:53:03;;;;;;;11.75;2.90;;;;;;;20.65;35.18;100564.78;7390719;19;20036;-57
2023/02/15 01:55:42;;;;;;;14.50;4.07;;;;;;;20.91;34.52;100561.44;7392662;19;20482;-57
2023/02/15 01:58:08;;;;;;;14.43;3.10;;;;;;;20.69;34.70;100556.75;7393234;19;20018;-57
2023/02/15 02:00:35;;;;;;;9.55;3.17;;;;;;;20.88;34.55;100562.47;7392141;19;20478;-57
2023/02/15 02:03:03;;;;;;;6.93;2.60;;;;;;;19.95;35.93;100559.09;7391361;19;20010;-57
2023/02/15 02:05:30;;;;;;;15.80;2.90;;;;;;;20.59;35.73;100558.41;7396441;19;20478;-57
2023/02/15 02:07:59;;;;;;;4.22;1.83;;;;;;;20.57;36.06;100554.56;7391838;19;20014;-57
2023/02/15 02:10:26;;;;;;;9.07;2.92;;;;;;;20.52;36.56;100547.66;7390719;19;20049;-57
2023/02/15 02:12:57;;;;;;;15.52;3.42;;;;;;;20.52;36.90;100541.22;7387007;19;20011;-57
2023/02/15 02:16:12;;;;;;;7.05;2.78;;;;;;;20.97;37.10;100536.66;7394806;19;20010;-57
2023/02/15 02:19:05;;;;;;;7.30;3.33;;;;;;;20.75;37.30;100531.97;7394907;19;20010;-57
2023/02/15 02:21:49;;;;;;;29.38;3.80;;;;;;;20.87;37.22;100527.75;7398406;19;20011;-57
2023/02/15 02:24:36;;;;;;;11.85;3.33;;;;;;;14.48;45.21;100536.13;7396667;19;20010;-57
2023/02/15 02:27:39;;;;;;;6.95;3.83;;;;;;;19.25;42.34;100520.88;7398558;19;20030;-57
2023/02/15 02:30:21;;;;;;;18.15;4.05;;;;;;;20.92;38.97;100512.75;7398195;19;20467;-57
2023/02/15 02:33:02;;;;;;;;;;;;;;;21.71;38.48;100497.09;7395586;19;20006;-57
2023/02/15 02:35:28;;;;;;;9.98;2.38;;;;;;;22.58;37.40;100501.13;7401332;19;19915;-57
2023/02/15 02:38:01;;;;;;;4.60;2.75;;;;;;;22.32;37.34;100496.19;7395838;19;20021;-57
2023/02/15 02:41:00;;;;;;;6.90;3.00;;;;;;;22.56;36.84;100493.19;7396963;19;20515;-57
2023/02/15 02:43:43;;;;;;;10.75;3.03;;;;;;;22.91;36.49;100485.56;7396423;19;20018;-57
2023/02/15 02:46:30;;;;;;;4.07;2.58;;;;;;;22.96;36.12;100481.84;7394397;19;20070;-57
2023/02/15 02:48:56;;;;;;;6.70;3.25;;;;;;;22.89;36.38;100471.16;7395787;19;20014;-57
2023/02/15 02:51:24;;;;;;;9.43;2.63;;;;;;;22.91;35.97;100468.53;7394803;19;20010;-58
2023/02/15 02:53:56;;;;;;;5.05;3.35;;;;;;;22.82;36.21;100454.75;7397059;19;20011;-57
2023/02/15 02:56:33;;;;;;;4.63;1.48;;;;;;;23.08;36.04;100460.44;7397843;19;20043;-57
2023/02/15 02:59:24;;;;;;;9.50;2.85;;;;;;;23.14;35.75;100441.19;7398196;19;20470;-57
2023/02/15 03:01:58;;;;;;;4.65;2.17;;;;;;;23.24;35.59;100448.72;7397907;19;20055;-57
2023/02/15 03:04:32;;;;;;;13.98;4.32;;;;;;;23.14;35.81;100441.97;7398191;19;20018;-57
2023/02/15 03:07:07;;;;;;;14.60;3.90;;;;;;;23.12;35.33;100438.13;7395053;19;20007;-57
2023/02/15 03:09:43;;;;;;;20.30;4.40;;;;;;;23.48;35.25;100427.78;7394321;19;20087;-58
2023/02/15 03:12:20;;;;;;;18.33;3.55;;;;;;;23.40;35.27;100426.94;7390062;19;20078;-58
2023/02/15 03:14:52;;;;;;;3.40;2.85;;;;;;;23.23;35.20;100432.22;7397616;19;20344;-58
2023/02/15 03:17:22;;;;;;;5.30;2.95;;;;;;;23.07;35.33;100419.88;7396648;19;20026;-58
2023/02/15 03:19:52;;;;;;;14.20;4.15;;;;;;;23.03;35.42;100407.31;7397352;19;20015;-58
2023/02/15 03:22:28;;;;;;;4.45;3.38;;;;;;;23.12;35.07;100409.72;7394166;19;20007;-58
2023/02/15 03:25:13;;;;;;;4.28;2.63;;;;;;;23.11;35.43;100408.94;7400696;19;20018;-58
2023/02/15 03:27:44;;;;;;;8.45;2.85;;;;;;;23.07;35.13;100407.75;7395093;19;20022;-57
2023/02/15 03:30:14;;;;;;;13.43;3.08;;;;;;;23.02;35.40;100412.22;7397943;19;20014;-57
2023/02/15 03:32:43;;;;;;;7.65;3.83;;;;;;;19.43;39.19;100415.81;7394244;19;20471;-59
2023/02/15 03:35:09;;;;;;;16.00;2.88;;;;;;;22.21;37.39;100402.72;7399723;19;20006;-58
2023/02/15 03:37:42;;;;;;;7.30;3.63;;;;;;;23.03;36.04;100402.41;7395887;19;20467;-58
2023/02/15 03:43:12;;;;;;;15.85;4.03;;;;;;;22.05;36.28;100395.25;7396973;19;20421;-58
2023/02/15 03:45:54;;;;;;;12.00;3.95;;;;;;;23.01;35.76;100392.91;7396624;19;20018;-58
2023/02/15 03:48:26;;;;;;;;;;;;;;;23.05;35.52;100387.66;7395591;19;20014;-57
2023/02/15 03:53:45;;;;;;;6.23;1.67;;;;;;;22.97;35.39;100378.28;7396313;19;20045;-58
2023/02/15 03:56:11;;;;;;;7.30;2.80;;;;;;;22.96;35.49;100373.88;7394723;19;20227;-58
2023/02/15 04:04:22;;;;;;;4.43;2.55;;;;;;;22.81;35.12;100362.34;7399298;19;20006;-58
2023/02/15 04:06:48;;;;;;;;;;;;;;;22.73;35.20;100365.09;7394694;19;20014;-58
2023/02/15 04:11:59;;;;;;;5.68;2.95;;;;;;;23.37;34.74;100362.66;7393404;19;20022;-58
2023/02/15 04:17:11;;;;;;;7.38;3.83;;;;;;;22.95;34.93;100353.25;7395181;19;20091;-57
2023/02/15 04:25:13;;;;;;;11.68;4.43;;;;;;;23.25;34.78;100341.47;7397106;19;20010;-57
2023/02/15 04:27:41;;;;;;;11.18;5.18;;;;;;;23.12;34.62;100330.91;7393982;19;20019;-58
2023/02/15 04:30:10;;;;;;;5.53;3.22;;;;;;;23.18;34.56;100337.22;7397436;19;20717;-58
2023/02/15 04:32:36;;;;;;;18.92;3.25;;;;;;;23.21;34.46;100332.53;7392124;19;20730;-57
2023/02/15 04:35:03;;;;;;;17.40;4.45;;;;;;;23.16;34.42;100322.81;7397855;19;20018;-57
2023/02/15 04:37:29;;;;;;;10.25;2.65;;;;;;;23.09;34.10;100320.66;7393002;19;20344;-58
2023/02/15 04:39:55;;;;;;;13.25;3.97;;;;;;;22.90;34.58;100322.13;7394571;19;20034;-58
2023/02/15 04:42:22;;;;;;;17.08;4.88;;;;;;;22.79;34.71;100320.28;7393915;19;20348;-58
2023/02/15 04:44:48;;;;;;;14.27;3.50;;;;;;;22.85;34.35;100312.41;7396469;19;20017;-58
2023/02/15 04:47:14;;;;;;;13.15;4.00;;;;;;;23.06;34.53;100309.63;7394853;19;20066;-58
2023/02/15 04:49:40;;;;;;;10.13;4.18;;;;;;;23.21;34.47;100318.31;7394511;19;20066;-57
2023/02/15 04:52:06;;;;;;;18.67;4.53;;;;;;;23.08;34.46;100319.13;7393279;19;20463;-58
2023/02/15 04:54:32;;;;;;;4.53;2.03;;;;;;;23.12;34.51;100308.19;7397801;19;20018;-57
2023/02/15 04:56:58;;;;;;;9.02;2.15;;;;;;;23.18;34.02;100305.97;7394680;19;20467;-58
2023/02/15 04:59:25;;;;;;;11.80;3.42;;;;;;;23.17;34.09;100312.22;7394503;19;20107;-58
2023/02/15 05:01:51;;;;;;;20.15;3.90;;;;;;;22.87;34.83;100303.34;7393740;19;20030;-58
2023/02/15 05:04:17;;;;;;;15.23;4.07;;;;;;;23.16;34.50;100313.53;7396009;19;20073;-58
2023/02/15 05:06:43;;;;;;;12.50;3.20;;;;;;;23.13;34.19;100314.63;7394101;19;20030;-57
2023/02/15 05:09:11;;;;;;;9.80;2.20;;;;;;;23.22;34.18;100306.38;7392933;19;20027;-57
2023/02/15 05:11:37;;;;;;;6.90;2.72;;;;;;;22.91;34.49;100309.47;7391110;19;20018;-57
2023/02/15 05:14:04;;;;;;;4.78;2.63;;;;;;;22.79;34.52;100308.16;7396027;19;20020;-57
2023/02/15 05:16:30;;;;;;;4.75;2.45;;;;;;;22.68;34.70;100311.25;7392668;19;20021;-57
2023/02/15 05:18:57;;;;;;;12.85;3.80;;;;;;;22.78;34.51;100306.66;7392136;19;20010;-57
2023/02/15 05:21:23;;;;;;;8.23;3.10;;;;;;;22.71;34.83;100307.31;7393691;19;20495;-57
2023/02/15 05:23:49;;;;;;;10.38;3.67;;;;;;;22.46;35.10;100304.69;7394908;19;20014;-58
2023/02/15 05:29:08;;;;;;;15.35;4.85;;;;;;;22.32;34.72;100297.50;7393212;19;20483;-58
2023/02/15 05:31:35;;;;;;;13.35;4.28;;;;;;;22.20;35.12;100299.03;7396974;19;20010;-58
2023/02/15 05:34:02;;;;;;;4.07;2.90;;;;;;;21.93;35.29;100303.16;7394889;19;20018;-57
2023/02/15 05:36:28;;;;;;;4.95;2.55;;;;;;;22.05;34.95;100293.13;7392570;19;20498;-57
2023/02/15 05:38:55;;;;;;;3.40;2.40;;;;;;;22.24;35.09;100293.03;7393981;19;20010;-57
2023/02/15 05:41:21;;;;;;;20.30;3.58;;;;;;;22.25;34.98;100283.97;7392936;19;20413;-57
2023/02/15 05:43:47;;;;;;;3.80;2.80;;;;;;;22.04;35.14;100283.09;7394357;19;20431;-57
2023/02/15 05:46:13;;;;;;;10.27;2.92;;;;;;;21.76;34.99;100277.16;7392279;19;20035;-57
2023/02/15 05:48:40;;;;;;;9.35;2.90;;;;;;;21.61;35.22;100274.09;7392404;19;20010;-57
2023/02/15 05:51:11;;;;;;;5.72;2.08;;;;;;;21.67;35.00;100277.59;7397352;19;20054;-58
2023/02/15 05:53:38;;;;;;;2.42;2.10;;;;;;;22.12;34.55;100274.69;7401990;19;20026;-58
2023/02/15 05:56:05;;;;;;;7.03;2.72;;;;;;;22.33;34.51;100272.72;7400003;19;20031;-58
2023/02/15 05:58:35;;;;;;;11.88;2.80;;;;;;;22.25;34.39;100266.94;7399748;19;20078;-58
2023/02/15 06:01:11;;;;;;;5.13;2.53;;;;;;;22.47;34.30;100269.34;7399272;19;20007;-58
2023/02/15 06:03:38;;;;;;;9.60;4.45;;;;;;;22.67;34.23;100269.97;7401418;19;20356;-58
2023/02/15 06:06:04;;;;;;;15.25;3.85;;;;;;;22.77;33.87;100276.72;7397895;19;20491;-57
2023/02/15 06:08:31;;;;;;;5.03;2.30;;;;;;;22.89;33.65;100281.59;7398781;19;20006;-58
2023/02/15 06:10:57;;;;;;;7.28;3.67;;;;;;;22.98;33.73;100274.66;7398597;19;20014;-55
2023/02/15 06:13:24;;;;;;;4.43;2.40;;;;;;;22.65;33.65;100272.59;7397153;19;20467;-55
2023/02/15 06:15:50;;;;;;;3.97;1.98;;;;;;;22.60;33.74;100274.25;7398478;19;20007;-57
2023/02/15 06:18:16;;;;;;;17.55;3.22;;;;;;;22.50;34.12;100281.66;7400140;19;20086;-57
2023/02/15 06:20:42;;;;;;;9.38;3.20;;;;;;;22.67;33.85;100284.94;7398579;19;20018;-58
2023/02/15 06:23:08;;;;;;;5.78;3.67;;;;;;;21.28;34.74;100277.47;7397937;19;20482;-58
2023/02/15 06:25:34;;;;;;;6.63;3.67;;;;;;;22.00;34.55;100274.16;7398635;19;20014;-58
2023/02/15 06:28:00;;;;;;;6.78;2.65;;;;;;;21.97;34.71;100269.56;7398925;19;20377;-58
2023/02/15 06:30:27;;;;;;;23.30;5.15;;;;;;;21.89;34.84;100280.03;7400775;19;20010;-58
2023/02/15 06:32:53;;;;;;;1.23;1.23;;;;;;;19.24;37.92;100290.63;7396701;19;20070;-58
2023/02/15 06:35:19;;;;;;;4.97;3.35;;;;;;;21.10;35.64;100285.47;7399908;19;20062;-57
2023/02/15 06:37:46;;;;;;;7.68;2.97;;;;;;;21.83;35.05;100280.13;7398122;19;20352;-57
2023/02/15 06:40:12;;;;;;;4.68;3.28;;;;;;;21.76;34.72;100288.50;7396622;19;20018;-58
2023/02/15 06:42:39;;;;;;;15.75;3.42;;;;;;;21.72;34.90;100266.13;7400881;19;20021;-58
2023/02/15 06:45:05;;;;;;;6.82;3.08;;;;;;;22.02;34.60;100267.94;7402461;19;20013;-58
2023/02/15 06:47:31;;;;;;;4.40;3.22;;;;;;;22.12;34.56;100266.97;7398364;19;20018;-57
2023/02/15 06:49:57;;;;;;;18.77;3.90;;;;;;;22.13;34.23;100265.66;7398802;19;20017;-57
2023/02/15 06:52:24;;;;;;;22.65;6.85;;;;;;;22.27;34.12;100255.81;7396629;19;20074;-58
2023/02/15 06:54:50;;;;;;;6.75;2.65;;;;;;;22.27;34.01;100252.97;7400857;19;20452;-58
2023/02/15 06:57:17;;;;;;;7.72;4.55;;;;;;;22.32;33.94;100237.91;7396534;19;20014;-58
2023/02/15 06:59:43;;;;;;;24.90;3.60;;;;;;;22.43;33.78;100257.56;7396527;19;20010;-57
2023/02/15 07:02:12;;;;;;;11.48;2.97;;;;;;;22.65;33.92;100264.09;7395294;19;20010;-57
2023/02/15 07:04:38;;;;;;;24.50;4.60;;;;;;;22.84;33.71;100256.16;7399468;19;20073;-58
2023/02/15 07:07:08;;;;;;;9.15;3.17;;;;;;;22.65;33.76;100252.72;7396064;19;20023;-57
2023/02/15 07:09:35;;;;;;;3.10;1.60;;;;;;;22.72;33.44;100257.75;7395271;19;20013;-58
2023/02/15 07:14:45;;;;;;;9.93;4.65;;;;;;;22.60;33.21;100262.91;7399516;19;20013;-55
2023/02/15 07:17:11;;;;;;;5.18;3.42;;;;;;;22.46;33.43;100253.59;7396744;19;20044;-55
2023/02/15 07:19:37;;;;;;;7.57;3.08;;;;;;;22.44;33.61;100256.22;7396156;19;20074;-55
2023/02/15 07:22:04;;;;;;;12.90;3.58;;;;;;;22.48;33.58;100255.91;7395710;19;20352;-55
2023/02/15 07:24:31;;;;;;;5.28;1.17;;;;;;;22.31;33.24;100247.72;7399323;19;20074;-55
2023/02/15 07:26:59;;;;;;;9.70;3.60;;;;;;;22.20;33.27;100252.88;7396895;19;20011;-55
2023/02/15 07:29:25;;;;;;;7.93;2.63;;;;;;;22.34;33.29;100246.66;7397734;19;20018;-58
2023/02/15 07:31:52;;;;;;;3.97;2.97;;;;;;;22.58;33.17;100252.06;7396346;19;20010;-57
2023/02/15 07:34:18;;;;;;;3.22;1.50;;;;;;;22.65;33.31;100258.41;7399225;19;20015;-56
2023/02/15 07:36:44;;;;;;;3.70;3.03;;;;;;;22.44;33.11;100255.44;7396990;19;20277;-56
2023/02/15 07:39:10;;;;;;;4.13;2.63;;;;;;;22.52;33.11;100245.72;7397011;19;20532;-56
2023/02/15 07:41:36;;;;;;;6.63;3.95;;;;;;;22.73;33.02;100242.22;7396688;19;20011;-56
2023/02/15 07:44:14;;;;;;;7.70;1.77;;;;;;;22.56;32.97;100243.34;7397840;19;20032;-56
2023/02/15 07:46:41;;;;;;;13.48;2.35;;;;;;;22.39;33.34;100248.59;7395388;19;20085;-56
2023/02/15 07:49:07;;;;;;;10.27;3.10;;;;;;;22.37;33.31;100237.03;7396472;19;20031;-56
2023/02/15 07:51:34;;;;;;;12.13;4.78;;;;;;;22.67;32.97;100233.06;7395172;19;20022;-56
2023/02/15 07:54:00;;;;;;;3.80;3.10;;;;;;;8.20;55.76;100250.88;7397536;19;20022;-56
2023/02/15 07:56:26;;;;;;;9.38;3.83;;;;;;;21.59;36.56;100228.50;7395024;19;20011;-56
2023/02/15 07:58:52;;;;;;;13.63;3.40;;;;;;;22.60;35.05;100228.81;7395804;19;20014;-56
2023/02/15 08:01:24;;;;;;;4.55;3.33;;;;;;;22.59;34.76;100222.38;7394023;19;20463;-56
2023/02/15 08:03:51;;;;;;;9.80;2.67;;;;;;;22.34;34.79;100235.28;7396328;19;20018;-57
2023/02/15 08:06:17;;;;;;;10.80;4.85;;;;;;;22.59;34.55;100221.59;7395072;19;20344;-56
2023/02/15 08:08:43;;;;;;;3.05;2.08;;;;;;;22.93;34.28;100210.25;7393926;19;20017;-57
2023/02/15 08:11:28;;;;;;;5.93;2.13;;;;;;;22.97;34.21;100210.66;7395381;19;20027;-56
2023/02/15 08:14:02;;;;;;;4.60;2.03;;;;;;;22.68;34.38;100212.63;7395559;19;20100;-56
2023/02/15 08:16:43;;;;;;;9.68;3.95;;;;;;;22.83;34.42;100204.28;7395633;19;20063;-56
2023/02/15 08:19:18;;;;;;;1.45;1.33;;;;;;;23.02;34.09;100206.94;7394496;19;20031;-56
2023/02/15 08:21:49;;;;;;;17.60;4.28;;;;;;;23.33;33.91;100214.44;7394500;19;20342;-56
2023/02/15 08:24:18;;;;;;;8.07;3.88;;;;;;;23.43;34.09;100221.16;7397356;19;20010;-56
2023/02/15 08:26:46;;;;;;;4.05;2.92;;;;;;;23.51;34.24;100216.28;7394407;19;20483;-56
2023/02/15 08:29:17;;;;;;;5.25;1.90;;;;;;;23.57;33.87;100201.91;7394201;19;20018;-56
2023/02/15 08:31:44;;;;;;;4.95;2.05;;;;;;;23.84;33.91;100189.78;7393975;19;20437;-57
2023/02/15 08:34:13;;;;;;;26.60;5.38;;;;;;;23.51;34.16;100178.56;7396370;19;20013;-56
2023/02/15 08:36:39;;;;;;;15.82;3.58;;;;;;;23.76;34.31;100177.59;7394124;19;20077;-56
2023/02/15 08:39:06;;;;;;;7.65;3.78;;;;;;;23.97;33.98;100169.00;7395222;19;20011;-56
2023/02/15 08:41:36;;;;;;;3.53;1.77;;;;;;;24.23;33.84;100159.47;7394740;19;20035;-56
2023/02/15 08:44:06;;;;;;;11.80;3.00;;;;;;;24.10;34.27;100155.41;7397642;19;20019;-56
2023/02/15 08:46:35;;;;;;;11.52;3.78;;;;;;;24.21;34.15;100159.25;7392966;19;20014;-56
2023/02/15 08:49:02;;;;;;;17.55;4.80;;;;;;;24.48;34.16;100169.03;7394265;19;20018;-56
2023/02/15 08:51:30;;;;;;;3.42;3.10;;;;;;;24.47;33.85;100187.44;7393227;19;20463;-56
2023/02/15 08:53:59;;;;;;;10.13;5.07;;;;;;;24.60;33.75;100176.66;7395486;19;20006;-56
2023/02/15 08:56:28;;;;;;;8.43;3.15;;;;;;;24.76;33.74;100191.72;7393681;19;20474;-56
2023/02/15 08:58:55;;;;;;;4.85;2.38;;;;;;;24.57;34.38;100186.34;7393029;19;20492;-56
2023/02/15 09:01:24;;;;;;;7.57;2.05;;;;;;;24.80;33.97;100197.81;7393981;19;20011;-56
2023/02/15 09:03:55;;;;;;;13.30;5.93;;;;;;;24.48;34.68;100208.91;7395002;19;20007;-56
2023/02/15 09:06:22;;;;;;;13.63;3.85;;;;;;;24.99;33.97;100206.78;7394651;19;20160;-56
2023/02/15 09:08:49;;;;;;;9.02;2.78;;;;;;;25.45;33.69;100214.06;7394127;19;20511;-56
2023/02/15 09:11:23;;;;;;;6.95;2.90;;;;;;;25.73;33.64;100215.19;7391911;19;20488;-56
2023/02/15 09:13:53;;;;;;;17.95;5.47;;;;;;;25.71;33.27;100215.00;7396236;19;20018;-57
2023/02/15 09:16:20;;;;;;;15.85;3.65;;;;;;;25.69;33.39;100207.00;7397270;19;20352;-56
2023/02/15 09:18:47;;;;;;;17.73;5.60;;;;;;;26.16;32.98;100209.22;7398651;19;20470;-56
2023/02/15 09:21:17;;;;;;;3.05;1.95;;;;;;;25.83;33.52;100204.69;7397160;19;20023;-56
2023/02/15 09:23:45;;;;;;;3.40;1.90;;;;;;;26.10;33.09;100200.84;7395531;19;20022;-56
2023/02/15 09:26:14;;;;;;;8.13;4.03;;;;;;;26.48;33.19;100195.00;7400313;19;20086;-56
2023/02/15 09:28:41;;;;;;;6.82;3.58;;;;;;;26.63;33.07;100189.19;7401259;19;20014;-56
2023/02/15 09:31:19;;;;;;;9.18;3.50;;;;;;;27.17;32.21;100178.19;7406290;19;20097;-56
2023/02/15 09:33:46;;;;;;;4.70;3.08;;;;;;;27.41;32.54;100171.72;7401290;19;20010;-56
2023/02/15 09:36:17;;;;;;;3.38;2.90;;;;;;;27.77;32.20;100189.09;7399419;19;20011;-56
2023/02/15 09:38:45;;;;;;;6.78;3.25;;;;;;;27.96;31.88;100183.56;7401675;19;20010;-56
2023/02/15 09:41:26;;;;;;;9.63;5.25;;;;;;;27.72;32.11;100184.41;7398701;19;20095;-56
2023/02/15 09:43:55;;;;;;;;;;;;;;;27.32;32.08;100180.91;7402963;19;20021;-56
2023/02/15 09:47:02;;;;;;;14.40;4.95;;;;;;;27.46;32.13;100176.44;7399564;19;20347;-56
2023/02/15 09:49:55;;;;;;;6.70;2.88;;;;;;;27.73;32.21;100175.22;7399533;19;20094;-56
2023/02/15 09:52:49;;;;;;;14.45;5.55;;;;;;;28.01;32.16;100176.84;7397978;19;20011;-56
2023/02/15 09:55:24;;;;;;;5.32;2.92;;;;;;;28.61;31.52;100172.47;7403558;19;20010;-56
2023/02/15 09:58:11;;;;;;;11.55;4.22;;;;;;;28.66;31.25;100167.81;7399712;19;20003;-56
2023/02/15 10:00:52;;;;;;;12.52;4.88;;;;;;;28.34;31.75;100171.69;7399635;19;20015;-56
2023/02/15 10:03:42;;;;;;;13.93;4.15;;;;;;;28.42;32.20;100173.09;7399828;19;20011;-56
2023/02/15 10:06:20;;;;;;;7.43;2.45;;;;;;;28.23;32.24;100166.47;7398297;19;20014;-56
2023/02/15 10:09:22;;;;;;;14.77;3.88;;;;;;;28.28;32.45;100157.63;7399069;19;20039;-56
2023/02/15 10:12:20;;;;;;;12.40;4.03;;;;;;;28.90;31.85;100153.31;7395190;19;20062;-56
2023/02/15 10:14:56;;;;;;;5.78;3.05;;;;;;;29.19;31.86;100139.84;7401036;19;20423;-56
2023/02/15 10:17:35;;;;;;;6.28;2.25;;;;;;;28.78;32.20;100140.16;7396766;19;20062;-56
2023/02/15 10:20:28;;;;;;;6.38;4.38;;;;;;;28.50;32.79;100144.34;7398303;19;20025;-57
2023/02/15 10:23:13;;;;;;;9.70;2.90;;;;;;;27.67;33.74;100148.19;7395932;19;20006;-57
2023/02/15 10:26:14;;;;;;;16.05;3.28;;;;;;;27.71;33.57;100145.66;7396549;19;20014;-57
2023/02/15 10:28:40;;;;;;;7.28;1.95;;;;;;;28.72;32.80;100145.41;7399677;19;20017;-57
2023/02/15 10:31:34;;;;;;;8.50;3.42;;;;;;;28.70;32.91;100145.22;7399600;19;20011;-61
2023/02/15 10:34:00;;;;;;;5.82;3.05;;;;;;;29.15;32.69;100142.38;7401219;19;20463;-58
2023/02/15 10:36:46;;;;;;;21.27;5.22;;;;;;;29.04;32.99;100150.81;7397057;19;20463;-58
2023/02/15 10:39:28;;;;;;;4.65;3.72;;;;;;;29.22;33.31;100152.25;7399476;19;20022;-58
2023/02/15 10:42:09;;;;;;;18.98;4.75;;;;;;;29.18;34.14;100154.81;7398900;19;20014;-58
2023/02/15 10:44:59;;;;;;;8.02;4.07;;;;;;;29.37;33.43;100149.13;7402335;19;20031;-58
2023/02/15 10:47:58;;;;;;;24.10;3.60;;;;;;;29.33;34.32;100140.19;7399125;19;20031;-58
2023/02/15 10:50:29;;;;;;;15.15;4.07;;;;;;;29.60;34.16;100137.25;7397687;19;20006;-58
2023/02/15 10:53:12;;;;;;;7.97;4.20;;;;;;;29.61;33.88;100139.50;7397756;19;20011;-58
2023/02/15 10:55:38;;;;;;;5.72;2.97;;;;;;;29.90;33.69;100143.19;7399017;19;20459;-58
2023/02/15 10:58:24;;;;;;;13.07;4.68;;;;;;;29.73;33.64;100140.44;7397792;19;20025;-58
2023/02/15 11:00:50;;;;;;;3.75;3.15;;;;;;;29.59;33.95;100145.09;7398293;19;20014;-58
2023/02/15 11:03:25;;;;;;;11.25;5.07;;;;;;;29.87;33.66;100132.91;7398417;19;20015;-58
2023/02/15 11:06:10;;;;;;;12.52;4.93;;;;;;;29.70;33.65;100130.16;7397359;19;20010;-58
2023/02/15 11:08:41;;;;;;;9.80;5.25;;;;;;;29.87;33.12;100127.16;7398459;19;20015;-59
2023/02/15 11:11:12;;;;;;;17.60;4.85;;;;;;;29.79;33.69;100132.31;7399716;19;20034;-58
2023/02/15 11:13:46;;;;;;;5.22;4.68;;;;;;;29.36;33.73;100135.38;7397025;19;20014;-57
2023/02/15 11:16:29;;;;;;;27.92;4.97;;;;;;;29.27;33.67;100116.03;7397111;19;20463;-56
2023/02/15 11:19:11;;;;;;;5.88;4.15;;;;;;;29.43;34.30;100112.31;7397661;19;20006;-56
2023/02/15 11:21:42;;;;;;;11.68;4.70;;;;;;;29.47;34.40;100117.59;7396932;19;20017;-56
2023/02/15 11:24:13;;;;;;;20.42;7.18;;;;;;;29.69;34.15;100111.41;7398945;19;20018;-56
2023/02/15 11:26:49;;;;;;;;;;;;;;;30.27;33.71;100109.28;7398091;19;20066;-57
2023/02/15 11:29:38;;;;;;;23.80;5.53;;;;;;;30.67;33.17;100108.56;7397494;19;19931;-57
2023/02/15 11:32:23;;;;;;;20.58;5.05;;;;;;;30.75;33.13;100100.53;7395875;19;20011;-56
2023/02/15 11:35:17;;;;;;;23.70;4.90;;;;;;;31.03;32.85;100093.94;7395352;19;20018;-62
2023/02/15 11:38:11;;;;;;;10.32;5.43;;;;;;;31.70;31.97;100084.09;7392247;19;20082;-63
2023/02/15 11:40:47;;;;;;;17.75;5.72;;;;;;;31.81;32.15;100092.03;7394264;19;20066;-63
2023/02/15 11:43:20;;;;;;;17.67;5.22;;;;;;;31.81;32.19;100101.44;7391185;19;20011;-63
2023/02/15 11:45:46;;;;;;;16.55;5.72;;;;;;;32.11;31.97;100099.81;7393418;19;20022;-63
2023/02/15 11:48:14;;;;;;;12.88;5.07;;;;;;;31.90;31.57;100108.50;7393176;19;20012;-63
2023/02/15 11:50:42;;;;;;;14.90;4.75;;;;;;;32.65;31.00;100117.78;7391209;19;20011;-62
2023/02/15 11:53:15;;;;;;;5.70;3.45;;;;;;;32.94;30.69;100114.56;7394139;19;20011;-61
2023/02/15 11:55:43;;;;;;;12.82;5.50;;;;;;;33.02;30.64;100120.84;7399026;19;20458;-61
2023/02/15 11:58:40;;;;;;;15.57;5.88;;;;;;;33.34;30.60;100117.03;7396864;19;20013;-61
2023/02/15 12:01:33;;;;;;;8.95;5.53;;;;;;;33.60;30.43;100115.75;7398917;19;20011;-61
2023/02/15 12:04:15;;;;;;;17.90;6.88;;;;;;;34.07;30.33;100116.38;7397715;19;20015;-60
2023/02/15 12:07:15;;;;;;;14.43;4.63;;;;;;;34.47;29.86;100103.44;7395412;19;20479;-62
2023/02/15 12:09:59;;;;;;;15.15;5.55;;;;;;;34.62;29.21;100110.78;7395199;19;20041;-62
2023/02/15 12:12:30;;;;;;;9.13;4.38;;;;;;;20.84;44.06;100132.44;7393488;19;20011;-61
2023/02/15 12:14:58;;;;;;;14.70;5.78;;;;;;;17.71;59.22;100135.81;7398521;19;20015;-61